sensor_id;sensor_type;location;lat;lon;timestamp;temperature;humidity
25937;DHT22;13733;51.178;4.450;2024-01-30T00:02:12;10.60;70.00
25937;DHT22;13733;51.178;4.450;2024-01-30T00:04:38;10.60;69.10
25937;DHT22;13733;51.178;4.450;2024-01-30T00:07:04;10.60;69.80
25937;DHT22;13733;51.178;4.450;2024-01-30T00:09:30;10.70;69.00
25937;DHT22;13733;51.178;4.450;2024-01-30T00:11:56;10.70;67.60
25937;DHT22;13733;51.178;4.450;2024-01-30T00:14:24;10.70;67.90
25937;DHT22;13733;51.178;4.450;2024-01-30T00:16:51;10.70;67.00
25937;DHT22;13733;51.178;4.450;2024-01-30T00:19:17;10.70;66.20
25937;DHT22;13733;51.178;4.450;2024-01-30T00:21:43;10.80;64.00
25937;DHT22;13733;51.178;4.450;2024-01-30T00:24:09;10.80;60.30
25937;DHT22;13733;51.178;4.450;2024-01-30T00:26:35;10.80;58.70
25937;DHT22;13733;51.178;4.450;2024-01-30T00:29:00;10.80;59.30
25937;DHT22;13733;51.178;4.450;2024-01-30T00:31:26;10.90;59.30
25937;DHT22;13733;51.178;4.450;2024-01-30T00:33:52;10.80;59.90
25937;DHT22;13733;51.178;4.450;2024-01-30T00:36:19;10.90;59.20
25937;DHT22;13733;51.178;4.450;2024-01-30T00:38:45;10.90;58.10
25937;DHT22;13733;51.178;4.450;2024-01-30T00:41:10;10.90;56.10
25937;DHT22;13733;51.178;4.450;2024-01-30T00:43:36;10.90;56.70
25937;DHT22;13733;51.178;4.450;2024-01-30T00:46:02;10.90;56.70
25937;DHT22;13733;51.178;4.450;2024-01-30T00:48:29;11.00;53.00
25937;DHT22;13733;51.178;4.450;2024-01-30T00:50:54;11.10;48.80
25937;DHT22;13733;51.178;4.450;2024-01-30T00:53:20;11.30;38.00
25937;DHT22;13733;51.178;4.450;2024-01-30T00:55:46;11.20;36.10
25937;DHT22;13733;51.178;4.450;2024-01-30T00:58:12;11.10;43.60
25937;DHT22;13733;51.178;4.450;2024-01-30T01:00:39;11.00;46.30
25937;DHT22;13733;51.178;4.450;2024-01-30T01:03:05;11.10;46.70
25937;DHT22;13733;51.178;4.450;2024-01-30T01:05:30;11.10;43.80
25937;DHT22;13733;51.178;4.450;2024-01-30T01:07:56;11.00;47.80
25937;DHT22;13733;51.178;4.450;2024-01-30T01:10:22;11.00;47.40
25937;DHT22;13733;51.178;4.450;2024-01-30T01:12:48;10.90;51.20
25937;DHT22;13733;51.178;4.450;2024-01-30T01:15:14;10.90;50.60
25937;DHT22;13733;51.178;4.450;2024-01-30T01:17:40;10.80;54.60
25937;DHT22;13733;51.178;4.450;2024-01-30T01:20:07;10.80;58.30
25937;DHT22;13733;51.178;4.450;2024-01-30T01:22:33;10.90;58.00
25937;DHT22;13733;51.178;4.450;2024-01-30T01:25:00;10.90;56.50
25937;DHT22;13733;51.178;4.450;2024-01-30T01:27:26;11.00;52.70
25937;DHT22;13733;51.178;4.450;2024-01-30T01:29:52;10.90;53.80
25937;DHT22;13733;51.178;4.450;2024-01-30T01:32:18;10.90;54.00
25937;DHT22;13733;51.178;4.450;2024-01-30T01:34:44;10.90;55.40
25937;DHT22;13733;51.178;4.450;2024-01-30T01:37:10;10.80;59.20
25937;DHT22;13733;51.178;4.450;2024-01-30T01:39:36;10.90;56.50
25937;DHT22;13733;51.178;4.450;2024-01-30T01:42:02;11.20;44.90
25937;DHT22;13733;51.178;4.450;2024-01-30T01:44:28;11.20;39.10
25937;DHT22;13733;51.178;4.450;2024-01-30T01:46:55;11.10;40.00
25937;DHT22;13733;51.178;4.450;2024-01-30T01:49:25;10.90;47.20
25937;DHT22;13733;51.178;4.450;2024-01-30T01:51:54;10.70;56.60
25937;DHT22;13733;51.178;4.450;2024-01-30T01:54:22;10.70;59.10
25937;DHT22;13733;51.178;4.450;2024-01-30T01:56:50;10.70;60.70
25937;DHT22;13733;51.178;4.450;2024-01-30T01:59:17;10.70;61.00
25937;DHT22;13733;51.178;4.450;2024-01-30T02:01:43;10.80;58.10
25937;DHT22;13733;51.178;4.450;2024-01-30T02:04:11;10.80;57.10
25937;DHT22;13733;51.178;4.450;2024-01-30T02:06:37;10.60;64.20
25937;DHT22;13733;51.178;4.450;2024-01-30T02:09:03;10.60;69.70
25937;DHT22;13733;51.178;4.450;2024-01-30T02:11:30;10.60;73.10
25937;DHT22;13733;51.178;4.450;2024-01-30T02:13:57;10.60;68.80
25937;DHT22;13733;51.178;4.450;2024-01-30T02:16:27;10.60;68.10
25937;DHT22;13733;51.178;4.450;2024-01-30T02:18:53;10.50;72.60
25937;DHT22;13733;51.178;4.450;2024-01-30T02:21:19;10.40;77.60
25937;DHT22;13733;51.178;4.450;2024-01-30T02:23:47;10.50;79.20
25937;DHT22;13733;51.178;4.450;2024-01-30T02:26:15;10.60;76.10
25937;DHT22;13733;51.178;4.450;2024-01-30T02:28:41;10.50;79.00
25937;DHT22;13733;51.178;4.450;2024-01-30T02:31:06;10.50;80.50
25937;DHT22;13733;51.178;4.450;2024-01-30T02:33:32;10.50;81.80
25937;DHT22;13733;51.178;4.450;2024-01-30T02:35:58;10.40;82.80
25937;DHT22;13733;51.178;4.450;2024-01-30T02:38:24;10.40;83.00
25937;DHT22;13733;51.178;4.450;2024-01-30T02:40:52;10.50;83.20
25937;DHT22;13733;51.178;4.450;2024-01-30T02:43:18;10.70;78.40
25937;DHT22;13733;51.178;4.450;2024-01-30T02:45:44;10.80;72.20
25937;DHT22;13733;51.178;4.450;2024-01-30T02:48:09;10.90;66.10
25937;DHT22;13733;51.178;4.450;2024-01-30T02:50:35;10.80;66.60
25937;DHT22;13733;51.178;4.450;2024-01-30T02:53:01;10.80;68.70
25937;DHT22;13733;51.178;4.450;2024-01-30T02:55:27;10.80;71.10
25937;DHT22;13733;51.178;4.450;2024-01-30T02:57:53;10.80;72.40
25937;DHT22;13733;51.178;4.450;2024-01-30T03:00:19;10.90;67.90
25937;DHT22;13733;51.178;4.450;2024-01-30T03:02:45;11.00;65.40
25937;DHT22;13733;51.178;4.450;2024-01-30T03:05:11;11.10;61.10
25937;DHT22;13733;51.178;4.450;2024-01-30T03:07:37;11.00;64.20
25937;DHT22;13733;51.178;4.450;2024-01-30T03:10:06;11.00;64.90
25937;DHT22;13733;51.178;4.450;2024-01-30T03:12:32;11.20;58.20
25937;DHT22;13733;51.178;4.450;2024-01-30T03:14:58;11.30;52.40
25937;DHT22;13733;51.178;4.450;2024-01-30T03:17:24;11.20;54.20
25937;DHT22;13733;51.178;4.450;2024-01-30T03:19:50;11.10;59.50
25937;DHT22;13733;51.178;4.450;2024-01-30T03:22:16;11.10;62.60
25937;DHT22;13733;51.178;4.450;2024-01-30T03:24:43;11.10;65.20
25937;DHT22;13733;51.178;4.450;2024-01-30T03:27:09;11.10;65.10
25937;DHT22;13733;51.178;4.450;2024-01-30T03:29:35;11.30;55.20
25937;DHT22;13733;51.178;4.450;2024-01-30T03:32:00;11.30;55.90
25937;DHT22;13733;51.178;4.450;2024-01-30T03:34:26;11.30;56.70
25937;DHT22;13733;51.178;4.450;2024-01-30T03:36:52;11.40;54.20
25937;DHT22;13733;51.178;4.450;2024-01-30T03:39:18;11.30;52.50
25937;DHT22;13733;51.178;4.450;2024-01-30T03:41:44;11.30;55.80
25937;DHT22;13733;51.178;4.450;2024-01-30T03:44:10;11.50;51.40
25937;DHT22;13733;51.178;4.450;2024-01-30T03:46:36;11.50;47.20
25937;DHT22;13733;51.178;4.450;2024-01-30T03:49:01;11.40;50.20
25937;DHT22;13733;51.178;4.450;2024-01-30T03:51:27;11.40;55.60
25937;DHT22;13733;51.178;4.450;2024-01-30T03:53:53;11.20;60.50
25937;DHT22;13733;51.178;4.450;2024-01-30T03:56:19;11.20;66.90
25937;DHT22;13733;51.178;4.450;2024-01-30T03:58:45;11.20;68.40
25937;DHT22;13733;51.178;4.450;2024-01-30T04:01:16;11.30;65.70
25937;DHT22;13733;51.178;4.450;2024-01-30T04:03:43;11.50;54.90
25937;DHT22;13733;51.178;4.450;2024-01-30T04:06:10;11.40;53.40
25937;DHT22;13733;51.178;4.450;2024-01-30T04:08:37;11.40;55.80
25937;DHT22;13733;51.178;4.450;2024-01-30T04:11:06;11.20;61.30
25937;DHT22;13733;51.178;4.450;2024-01-30T04:13:32;11.30;66.10
25937;DHT22;13733;51.178;4.450;2024-01-30T04:16:01;11.20;63.00
25937;DHT22;13733;51.178;4.450;2024-01-30T04:18:28;11.30;61.80
25937;DHT22;13733;51.178;4.450;2024-01-30T04:20:54;11.30;63.40
25937;DHT22;13733;51.178;4.450;2024-01-30T04:23:20;11.40;57.40
25937;DHT22;13733;51.178;4.450;2024-01-30T04:25:46;11.60;47.10
25937;DHT22;13733;51.178;4.450;2024-01-30T04:28:12;11.50;51.70
25937;DHT22;13733;51.178;4.450;2024-01-30T04:30:38;11.40;56.20
25937;DHT22;13733;51.178;4.450;2024-01-30T04:33:04;11.50;55.30
25937;DHT22;13733;51.178;4.450;2024-01-30T04:35:30;11.40;55.70
25937;DHT22;13733;51.178;4.450;2024-01-30T04:37:56;11.40;59.20
25937;DHT22;13733;51.178;4.450;2024-01-30T04:40:21;11.40;57.20
25937;DHT22;13733;51.178;4.450;2024-01-30T04:42:47;11.40;56.90
25937;DHT22;13733;51.178;4.450;2024-01-30T04:45:13;11.50;54.10
25937;DHT22;13733;51.178;4.450;2024-01-30T04:47:39;11.50;52.40
25937;DHT22;13733;51.178;4.450;2024-01-30T04:50:07;11.70;43.90
25937;DHT22;13733;51.178;4.450;2024-01-30T04:52:32;11.50;46.70
25937;DHT22;13733;51.178;4.450;2024-01-30T04:54:59;11.60;47.80
25937;DHT22;13733;51.178;4.450;2024-01-30T04:57:26;11.50;48.00
25937;DHT22;13733;51.178;4.450;2024-01-30T04:59:52;11.70;41.40
25937;DHT22;13733;51.178;4.450;2024-01-30T05:02:19;11.70;36.40
25937;DHT22;13733;51.178;4.450;2024-01-30T05:04:44;11.60;44.30
25937;DHT22;13733;51.178;4.450;2024-01-30T05:07:10;11.40;52.40
25937;DHT22;13733;51.178;4.450;2024-01-30T05:09:36;11.50;48.40
25937;DHT22;13733;51.178;4.450;2024-01-30T05:12:02;11.50;47.60
25937;DHT22;13733;51.178;4.450;2024-01-30T05:14:28;11.70;37.90
25937;DHT22;13733;51.178;4.450;2024-01-30T05:16:54;11.60;42.50
25937;DHT22;13733;51.178;4.450;2024-01-30T05:19:20;11.40;49.30
25937;DHT22;13733;51.178;4.450;2024-01-30T05:21:47;11.40;55.50
25937;DHT22;13733;51.178;4.450;2024-01-30T05:24:12;11.50;51.50
25937;DHT22;13733;51.178;4.450;2024-01-30T05:26:38;11.70;42.30
25937;DHT22;13733;51.178;4.450;2024-01-30T05:29:06;11.60;41.90
25937;DHT22;13733;51.178;4.450;2024-01-30T05:31:33;11.60;41.50
25937;DHT22;13733;51.178;4.450;2024-01-30T05:34:00;11.60;44.20
25937;DHT22;13733;51.178;4.450;2024-01-30T05:36:26;11.60;47.80
25937;DHT22;13733;51.178;4.450;2024-01-30T05:38:52;11.60;44.70
25937;DHT22;13733;51.178;4.450;2024-01-30T05:41:17;11.80;39.80
25937;DHT22;13733;51.178;4.450;2024-01-30T05:43:43;11.70;38.90
25937;DHT22;13733;51.178;4.450;2024-01-30T05:46:09;11.60;44.10
25937;DHT22;13733;51.178;4.450;2024-01-30T05:48:35;11.60;48.20
25937;DHT22;13733;51.178;4.450;2024-01-30T05:51:02;11.50;51.80
25937;DHT22;13733;51.178;4.450;2024-01-30T05:53:29;11.40;57.60
25937;DHT22;13733;51.178;4.450;2024-01-30T05:55:55;11.40;58.20
25937;DHT22;13733;51.178;4.450;2024-01-30T05:58:21;11.40;57.10
25937;DHT22;13733;51.178;4.450;2024-01-30T06:00:47;11.40;57.60
25937;DHT22;13733;51.178;4.450;2024-01-30T06:03:13;11.60;51.70
25937;DHT22;13733;51.178;4.450;2024-01-30T06:05:39;11.60;45.70
25937;DHT22;13733;51.178;4.450;2024-01-30T06:08:05;11.60;48.00
25937;DHT22;13733;51.178;4.450;2024-01-30T06:10:31;11.50;51.80
25937;DHT22;13733;51.178;4.450;2024-01-30T06:12:56;11.50;51.90
25937;DHT22;13733;51.178;4.450;2024-01-30T06:15:22;11.30;58.80
25937;DHT22;13733;51.178;4.450;2024-01-30T06:17:48;11.30;61.40
25937;DHT22;13733;51.178;4.450;2024-01-30T06:20:14;11.40;58.30
25937;DHT22;13733;51.178;4.450;2024-01-30T06:22:39;11.40;56.80
25937;DHT22;13733;51.178;4.450;2024-01-30T06:25:06;11.30;59.30
25937;DHT22;13733;51.178;4.450;2024-01-30T06:27:32;11.40;60.60
25937;DHT22;13733;51.178;4.450;2024-01-30T06:29:58;11.30;61.70
25937;DHT22;13733;51.178;4.450;2024-01-30T06:32:23;11.30;62.90
25937;DHT22;13733;51.178;4.450;2024-01-30T06:34:50;11.30;65.50
25937;DHT22;13733;51.178;4.450;2024-01-30T06:37:15;11.40;64.20
25937;DHT22;13733;51.178;4.450;2024-01-30T06:39:41;11.30;64.00
25937;DHT22;13733;51.178;4.450;2024-01-30T06:42:07;11.30;65.30
25937;DHT22;13733;51.178;4.450;2024-01-30T06:44:32;11.40;63.80
25937;DHT22;13733;51.178;4.450;2024-01-30T06:46:58;11.40;62.00
25937;DHT22;13733;51.178;4.450;2024-01-30T06:49:24;11.50;57.60
25937;DHT22;13733;51.178;4.450;2024-01-30T06:51:50;11.50;57.30
25937;DHT22;13733;51.178;4.450;2024-01-30T06:54:15;11.60;56.90
25937;DHT22;13733;51.178;4.450;2024-01-30T06:56:41;11.60;55.20
25937;DHT22;13733;51.178;4.450;2024-01-30T06:59:07;11.70;52.30
25937;DHT22;13733;51.178;4.450;2024-01-30T07:01:34;11.70;49.70
25937;DHT22;13733;51.178;4.450;2024-01-30T07:03:59;11.80;51.20
25937;DHT22;13733;51.178;4.450;2024-01-30T07:06:25;11.90;42.50
25937;DHT22;13733;51.178;4.450;2024-01-30T07:08:51;12.00;37.30
25937;DHT22;13733;51.178;4.450;2024-01-30T07:11:20;12.00;35.20
25937;DHT22;13733;51.178;4.450;2024-01-30T07:13:51;12.00;35.70
25937;DHT22;13733;51.178;4.450;2024-01-30T07:16:17;11.90;40.50
25937;DHT22;13733;51.178;4.450;2024-01-30T07:18:43;11.90;41.10
25937;DHT22;13733;51.178;4.450;2024-01-30T07:21:09;11.90;44.10
25937;DHT22;13733;51.178;4.450;2024-01-30T07:23:35;11.90;39.70
25937;DHT22;13733;51.178;4.450;2024-01-30T07:26:06;12.10;38.00
25937;DHT22;13733;51.178;4.450;2024-01-30T07:28:32;12.20;29.30
25937;DHT22;13733;51.178;4.450;2024-01-30T07:30:58;12.20;27.70
25937;DHT22;13733;51.178;4.450;2024-01-30T07:33:24;12.00;34.50
25937;DHT22;13733;51.178;4.450;2024-01-30T07:35:52;12.00;39.80
25937;DHT22;13733;51.178;4.450;2024-01-30T07:38:18;12.00;41.10
25937;DHT22;13733;51.178;4.450;2024-01-30T07:40:44;12.00;39.90
25937;DHT22;13733;51.178;4.450;2024-01-30T07:43:10;12.00;36.80
25937;DHT22;13733;51.178;4.450;2024-01-30T07:45:37;11.90;45.10
25937;DHT22;13733;51.178;4.450;2024-01-30T07:48:05;11.80;51.20
25937;DHT22;13733;51.178;4.450;2024-01-30T07:50:31;11.80;54.70
25937;DHT22;13733;51.178;4.450;2024-01-30T07:53:00;11.80;51.50
25937;DHT22;13733;51.178;4.450;2024-01-30T07:55:26;12.00;48.30
25937;DHT22;13733;51.178;4.450;2024-01-30T07:58:13;12.00;43.90
25937;DHT22;13733;51.178;4.450;2024-01-30T08:00:39;12.00;43.30
25937;DHT22;13733;51.178;4.450;2024-01-30T08:03:05;12.10;36.40
25937;DHT22;13733;51.178;4.450;2024-01-30T08:05:31;12.10;39.70
25937;DHT22;13733;51.178;4.450;2024-01-30T08:07:57;12.20;36.60
25937;DHT22;13733;51.178;4.450;2024-01-30T08:10:23;12.20;34.30
25937;DHT22;13733;51.178;4.450;2024-01-30T08:12:49;12.10;39.70
25937;DHT22;13733;51.178;4.450;2024-01-30T08:15:15;12.10;40.80
25937;DHT22;13733;51.178;4.450;2024-01-30T08:17:40;12.20;42.40
25937;DHT22;13733;51.178;4.450;2024-01-30T08:20:06;12.20;37.70
25937;DHT22;13733;51.178;4.450;2024-01-30T08:22:33;12.00;45.20
25937;DHT22;13733;51.178;4.450;2024-01-30T08:24:59;11.90;53.00
25937;DHT22;13733;51.178;4.450;2024-01-30T08:27:25;12.20;45.60
25937;DHT22;13733;51.178;4.450;2024-01-30T08:29:51;12.40;36.60
25937;DHT22;13733;51.178;4.450;2024-01-30T08:32:17;12.40;32.10
25937;DHT22;13733;51.178;4.450;2024-01-30T08:34:42;12.50;30.30
25937;DHT22;13733;51.178;4.450;2024-01-30T08:37:08;12.30;35.70
25937;DHT22;13733;51.178;4.450;2024-01-30T08:39:34;12.50;31.40
25937;DHT22;13733;51.178;4.450;2024-01-30T08:42:00;12.60;29.00
25937;DHT22;13733;51.178;4.450;2024-01-30T08:44:25;12.50;27.40
25937;DHT22;13733;51.178;4.450;2024-01-30T08:46:51;12.50;30.60
25937;DHT22;13733;51.178;4.450;2024-01-30T08:49:17;12.40;36.00
25937;DHT22;13733;51.178;4.450;2024-01-30T08:51:43;12.50;32.20
25937;DHT22;13733;51.178;4.450;2024-01-30T08:54:08;12.50;29.90
25937;DHT22;13733;51.178;4.450;2024-01-30T08:56:34;12.30;41.50
25937;DHT22;13733;51.178;4.450;2024-01-30T08:59:00;12.30;39.20
25937;DHT22;13733;51.178;4.450;2024-01-30T09:01:25;12.50;33.80
25937;DHT22;13733;51.178;4.450;2024-01-30T09:03:52;12.40;35.00
25937;DHT22;13733;51.178;4.450;2024-01-30T09:06:17;12.20;45.50
25937;DHT22;13733;51.178;4.450;2024-01-30T09:08:43;12.20;47.40
25937;DHT22;13733;51.178;4.450;2024-01-30T09:11:11;12.30;47.00
25937;DHT22;13733;51.178;4.450;2024-01-30T09:13:36;12.30;45.80
25937;DHT22;13733;51.178;4.450;2024-01-30T09:16:03;12.30;50.10
25937;DHT22;13733;51.178;4.450;2024-01-30T09:18:30;12.30;49.50
25937;DHT22;13733;51.178;4.450;2024-01-30T09:20:56;12.30;49.00
25937;DHT22;13733;51.178;4.450;2024-01-30T09:23:22;12.40;51.80
25937;DHT22;13733;51.178;4.450;2024-01-30T09:25:48;12.50;47.30
25937;DHT22;13733;51.178;4.450;2024-01-30T09:28:17;12.60;42.90
25937;DHT22;13733;51.178;4.450;2024-01-30T09:30:43;12.70;35.60
25937;DHT22;13733;51.178;4.450;2024-01-30T09:33:10;12.70;32.80
25937;DHT22;13733;51.178;4.450;2024-01-30T09:35:38;12.60;45.20
25937;DHT22;13733;51.178;4.450;2024-01-30T09:38:04;12.50;49.20
25937;DHT22;13733;51.178;4.450;2024-01-30T09:40:30;12.70;42.20
25937;DHT22;13733;51.178;4.450;2024-01-30T09:42:56;12.70;43.90
25937;DHT22;13733;51.178;4.450;2024-01-30T09:45:25;12.70;41.20
25937;DHT22;13733;51.178;4.450;2024-01-30T09:47:52;12.80;34.80
25937;DHT22;13733;51.178;4.450;2024-01-30T09:50:18;12.70;40.90
25937;DHT22;13733;51.178;4.450;2024-01-30T09:52:44;12.60;49.40
25937;DHT22;13733;51.178;4.450;2024-01-30T09:55:11;12.30;64.40
25937;DHT22;13733;51.178;4.450;2024-01-30T09:57:37;12.30;69.00
25937;DHT22;13733;51.178;4.450;2024-01-30T10:00:04;12.40;67.00
25937;DHT22;13733;51.178;4.450;2024-01-30T10:02:38;12.50;66.20
25937;DHT22;13733;51.178;4.450;2024-01-30T10:05:04;12.50;66.10
25937;DHT22;13733;51.178;4.450;2024-01-30T10:07:31;12.60;63.60
25937;DHT22;13733;51.178;4.450;2024-01-30T10:09:57;12.50;68.40
25937;DHT22;13733;51.178;4.450;2024-01-30T10:12:23;12.50;68.30
25937;DHT22;13733;51.178;4.450;2024-01-30T10:14:49;12.50;71.30
25937;DHT22;13733;51.178;4.450;2024-01-30T10:17:14;12.50;68.90
25937;DHT22;13733;51.178;4.450;2024-01-30T10:19:41;12.70;57.40
25937;DHT22;13733;51.178;4.450;2024-01-30T10:22:09;12.50;64.20
25937;DHT22;13733;51.178;4.450;2024-01-30T10:24:36;12.50;68.90
25937;DHT22;13733;51.178;4.450;2024-01-30T10:27:05;12.70;59.70
25937;DHT22;13733;51.178;4.450;2024-01-30T10:29:32;12.70;54.60
25937;DHT22;13733;51.178;4.450;2024-01-30T10:31:59;12.70;49.60
25937;DHT22;13733;51.178;4.450;2024-01-30T10:34:25;12.60;47.80
25937;DHT22;13733;51.178;4.450;2024-01-30T10:37:16;12.40;46.40
25937;DHT22;13733;51.178;4.450;2024-01-30T10:39:42;12.40;44.30
25937;DHT22;13733;51.178;4.450;2024-01-30T10:42:13;12.40;37.00
25937;DHT22;13733;51.178;4.450;2024-01-30T10:44:43;12.30;16.70
25937;DHT22;13733;51.178;4.450;2024-01-30T10:47:12;12.20;4.40
25937;DHT22;13733;51.178;4.450;2024-01-30T10:49:41;12.20;1.00
25937;DHT22;13733;51.178;4.450;2024-01-30T10:52:09;12.20;1.00
25937;DHT22;13733;51.178;4.450;2024-01-30T10:54:36;12.20;1.00
25937;DHT22;13733;51.178;4.450;2024-01-30T10:57:03;12.30;1.00
25937;DHT22;13733;51.178;4.450;2024-01-30T10:59:31;12.20;1.00
25937;DHT22;13733;51.178;4.450;2024-01-30T11:01:58;12.20;1.00
25937;DHT22;13733;51.178;4.450;2024-01-30T11:04:25;12.10;1.00
25937;DHT22;13733;51.178;4.450;2024-01-30T11:06:52;12.00;1.00
25937;DHT22;13733;51.178;4.450;2024-01-30T11:09:18;12.00;1.00
25937;DHT22;13733;51.178;4.450;2024-01-30T11:11:57;12.00;1.00
25937;DHT22;13733;51.178;4.450;2024-01-30T11:14:26;12.00;1.00
25937;DHT22;13733;51.178;4.450;2024-01-30T11:16:52;12.10;1.00
25937;DHT22;13733;51.178;4.450;2024-01-30T11:19:31;12.40;99.90
25937;DHT22;13733;51.178;4.450;2024-01-30T11:21:57;12.90;99.90
25937;DHT22;13733;51.178;4.450;2024-01-30T11:24:24;13.30;99.90
25937;DHT22;13733;51.178;4.450;2024-01-30T11:26:55;13.70;99.90
25937;DHT22;13733;51.178;4.450;2024-01-30T11:29:24;14.00;34.90
25937;DHT22;13733;51.178;4.450;2024-01-30T11:31:55;14.00;1.00
25937;DHT22;13733;51.178;4.450;2024-01-30T11:34:21;13.50;40.90
25937;DHT22;13733;51.178;4.450;2024-01-30T11:37:01;13.20;99.90
25937;DHT22;13733;51.178;4.450;2024-01-30T11:39:30;13.30;99.90
25937;DHT22;13733;51.178;4.450;2024-01-30T11:41:57;13.30;97.50
25937;DHT22;13733;51.178;4.450;2024-01-30T11:44:25;13.70;1.00
25937;DHT22;13733;51.178;4.450;2024-01-30T11:46:52;14.20;1.00
25937;DHT22;13733;51.178;4.450;2024-01-30T11:49:18;14.00;99.90
25937;DHT22;13733;51.178;4.450;2024-01-30T11:51:47;13.70;1.00
25937;DHT22;13733;51.178;4.450;2024-01-30T11:54:18;13.50;1.00
25937;DHT22;13733;51.178;4.450;2024-01-30T11:56:44;13.40;1.00
25937;DHT22;13733;51.178;4.450;2024-01-30T11:59:09;13.30;3.00
25937;DHT22;13733;51.178;4.450;2024-01-30T12:01:35;13.20;32.60
25937;DHT22;13733;51.178;4.450;2024-01-30T12:04:01;13.20;91.20
25937;DHT22;13733;51.178;4.450;2024-01-30T12:06:28;13.70;1.00
25937;DHT22;13733;51.178;4.450;2024-01-30T12:09:02;14.00;99.90
25937;DHT22;13733;51.178;4.450;2024-01-30T12:11:43;14.00;99.90
25937;DHT22;13733;51.178;4.450;2024-01-30T12:14:12;13.70;99.90
25937;DHT22;13733;51.178;4.450;2024-01-30T12:16:38;13.50;1.00
25937;DHT22;13733;51.178;4.450;2024-01-30T12:19:03;13.30;1.00
25937;DHT22;13733;51.178;4.450;2024-01-30T12:21:30;13.20;1.00
25937;DHT22;13733;51.178;4.450;2024-01-30T12:23:57;13.10;57.30
25937;DHT22;13733;51.178;4.450;2024-01-30T12:26:24;13.00;93.50
25937;DHT22;13733;51.178;4.450;2024-01-30T12:28:56;12.90;99.90
25937;DHT22;13733;51.178;4.450;2024-01-30T12:31:31;12.80;99.90
25937;DHT22;13733;51.178;4.450;2024-01-30T12:33:59;12.50;99.90
25937;DHT22;13733;51.178;4.450;2024-01-30T12:36:28;12.50;99.90
25937;DHT22;13733;51.178;4.450;2024-01-30T12:38:54;12.50;99.90
25937;DHT22;13733;51.178;4.450;2024-01-30T12:41:20;12.40;99.90
25937;DHT22;13733;51.178;4.450;2024-01-30T12:43:46;12.50;99.90
25937;DHT22;13733;51.178;4.450;2024-01-30T12:46:13;12.60;99.90
25937;DHT22;13733;51.178;4.450;2024-01-30T12:48:40;12.50;99.90
25937;DHT22;13733;51.178;4.450;2024-01-30T12:51:07;12.50;99.90
25937;DHT22;13733;51.178;4.450;2024-01-30T12:53:32;12.50;99.90
25937;DHT22;13733;51.178;4.450;2024-01-30T12:55:58;12.50;99.90
25937;DHT22;13733;51.178;4.450;2024-01-30T12:58:24;12.50;99.90
25937;DHT22;13733;51.178;4.450;2024-01-30T13:00:51;12.40;99.90
25937;DHT22;13733;51.178;4.450;2024-01-30T13:03:19;12.30;99.90
25937;DHT22;13733;51.178;4.450;2024-01-30T13:05:45;12.30;99.90
25937;DHT22;13733;51.178;4.450;2024-01-30T13:08:11;12.30;99.90
25937;DHT22;13733;51.178;4.450;2024-01-30T13:10:37;12.30;99.90
25937;DHT22;13733;51.178;4.450;2024-01-30T13:13:02;12.20;99.90
25937;DHT22;13733;51.178;4.450;2024-01-30T13:15:28;12.10;99.90
25937;DHT22;13733;51.178;4.450;2024-01-30T13:17:54;12.10;1.00
25937;DHT22;13733;51.178;4.450;2024-01-30T13:20:20;12.10;1.00
25937;DHT22;13733;51.178;4.450;2024-01-30T13:22:49;11.90;1.00
25937;DHT22;13733;51.178;4.450;2024-01-30T13:25:16;11.70;1.00
25937;DHT22;13733;51.178;4.450;2024-01-30T13:27:41;11.60;1.00
25937;DHT22;13733;51.178;4.450;2024-01-30T13:30:08;11.50;1.00
25937;DHT22;13733;51.178;4.450;2024-01-30T13:32:35;11.20;1.00
25937;DHT22;13733;51.178;4.450;2024-01-30T13:35:01;11.20;1.00
25937;DHT22;13733;51.178;4.450;2024-01-30T13:37:27;11.20;1.00
25937;DHT22;13733;51.178;4.450;2024-01-30T13:39:52;11.30;1.00
25937;DHT22;13733;51.178;4.450;2024-01-30T13:42:18;11.30;1.00
25937;DHT22;13733;51.178;4.450;2024-01-30T13:44:44;11.30;1.00
25937;DHT22;13733;51.178;4.450;2024-01-30T13:47:10;11.30;1.00
25937;DHT22;13733;51.178;4.450;2024-01-30T13:49:36;11.20;1.00
25937;DHT22;13733;51.178;4.450;2024-01-30T13:52:03;11.30;1.00
25937;DHT22;13733;51.178;4.450;2024-01-30T13:54:30;11.30;1.00
25937;DHT22;13733;51.178;4.450;2024-01-30T13:56:57;11.30;1.00
25937;DHT22;13733;51.178;4.450;2024-01-30T13:59:23;11.10;1.00
25937;DHT22;13733;51.178;4.450;2024-01-30T14:01:52;10.90;1.00
25937;DHT22;13733;51.178;4.450;2024-01-30T14:04:17;10.90;1.00
25937;DHT22;13733;51.178;4.450;2024-01-30T14:06:43;10.80;1.00
25937;DHT22;13733;51.178;4.450;2024-01-30T14:09:09;10.90;1.00
25937;DHT22;13733;51.178;4.450;2024-01-30T14:11:36;10.90;1.00
25937;DHT22;13733;51.178;4.450;2024-01-30T14:14:02;10.80;1.00
25937;DHT22;13733;51.178;4.450;2024-01-30T14:16:28;10.80;1.00
25937;DHT22;13733;51.178;4.450;2024-01-30T14:18:54;10.80;1.00
25937;DHT22;13733;51.178;4.450;2024-01-30T14:21:20;10.90;1.00
25937;DHT22;13733;51.178;4.450;2024-01-30T14:23:46;10.80;1.00
25937;DHT22;13733;51.178;4.450;2024-01-30T14:26:12;10.90;1.00
25937;DHT22;13733;51.178;4.450;2024-01-30T14:28:39;10.80;1.00
25937;DHT22;13733;51.178;4.450;2024-01-30T14:31:06;10.90;1.00
25937;DHT22;13733;51.178;4.450;2024-01-30T14:33:32;11.00;1.00
25937;DHT22;13733;51.178;4.450;2024-01-30T14:35:59;10.90;1.00
25937;DHT22;13733;51.178;4.450;2024-01-30T14:38:25;10.90;1.00
25937;DHT22;13733;51.178;4.450;2024-01-30T14:40:50;10.80;1.00
25937;DHT22;13733;51.178;4.450;2024-01-30T14:43:16;10.70;1.00
25937;DHT22;13733;51.178;4.450;2024-01-30T14:45:42;10.60;1.00
25937;DHT22;13733;51.178;4.450;2024-01-30T14:48:09;10.60;1.00
25937;DHT22;13733;51.178;4.450;2024-01-30T14:50:36;10.50;1.00
25937;DHT22;13733;51.178;4.450;2024-01-30T14:53:01;10.40;1.00
25937;DHT22;13733;51.178;4.450;2024-01-30T14:55:27;10.40;1.00
25937;DHT22;13733;51.178;4.450;2024-01-30T14:57:54;10.50;1.00
25937;DHT22;13733;51.178;4.450;2024-01-30T15:00:20;10.50;1.00
25937;DHT22;13733;51.178;4.450;2024-01-30T15:02:46;10.40;1.00
25937;DHT22;13733;51.178;4.450;2024-01-30T15:05:12;10.40;1.00
25937;DHT22;13733;51.178;4.450;2024-01-30T15:07:39;10.50;1.00
25937;DHT22;13733;51.178;4.450;2024-01-30T15:10:05;10.60;1.00
25937;DHT22;13733;51.178;4.450;2024-01-30T15:12:30;10.60;1.00
25937;DHT22;13733;51.178;4.450;2024-01-30T15:14:56;10.60;1.00
25937;DHT22;13733;51.178;4.450;2024-01-30T15:17:22;10.60;1.00
25937;DHT22;13733;51.178;4.450;2024-01-30T15:19:48;10.70;1.00
25937;DHT22;13733;51.178;4.450;2024-01-30T15:22:14;10.70;1.00
25937;DHT22;13733;51.178;4.450;2024-01-30T15:24:40;10.60;1.00
25937;DHT22;13733;51.178;4.450;2024-01-30T15:27:05;10.40;1.00
25937;DHT22;13733;51.178;4.450;2024-01-30T15:29:31;10.30;1.00
25937;DHT22;13733;51.178;4.450;2024-01-30T15:31:57;10.20;1.00